sensor_id;sensor_type;location;lat;lon;timestamp;temperature;humidity
22161;DHT22;49035;48.812;11.762;2023-02-28T00:00:39;-2.60;99.90
22161;DHT22;49035;48.812;11.762;2023-02-28T00:03:05;-2.60;99.90
22161;DHT22;49035;48.812;11.762;2023-02-28T00:05:31;-2.70;99.90
22161;DHT22;49035;48.812;11.762;2023-02-28T00:07:57;-2.60;99.90
22161;DHT22;49035;48.812;11.762;2023-02-28T00:10:25;-2.60;99.90
22161;DHT22;49035;48.812;11.762;2023-02-28T00:12:53;-2.50;99.90
22161;DHT22;49035;48.812;11.762;2023-02-28T00:15:19;-2.50;99.90
22161;DHT22;49035;48.812;11.762;2023-02-28T00:17:45;-2.60;99.90
22161;DHT22;49035;48.812;11.762;2023-02-28T00:20:12;-2.80;99.90
22161;DHT22;49035;48.812;11.762;2023-02-28T00:22:40;-2.80;99.90
22161;DHT22;49035;48.812;11.762;2023-02-28T00:25:07;-2.90;99.90
22161;DHT22;49035;48.812;11.762;2023-02-28T00:27:34;-3.00;99.90
22161;DHT22;49035;48.812;11.762;2023-02-28T00:30:00;-2.90;99.90
22161;DHT22;49035;48.812;11.762;2023-02-28T00:32:26;-2.90;99.90
22161;DHT22;49035;48.812;11.762;2023-02-28T00:34:51;-3.00;99.90
22161;DHT22;49035;48.812;11.762;2023-02-28T00:37:17;-2.90;99.90
22161;DHT22;49035;48.812;11.762;2023-02-28T00:39:43;-2.90;99.90
22161;DHT22;49035;48.812;11.762;2023-02-28T00:42:08;-2.80;99.90
22161;DHT22;49035;48.812;11.762;2023-02-28T00:44:34;-2.80;99.90
22161;DHT22;49035;48.812;11.762;2023-02-28T00:47:00;-2.80;99.90
22161;DHT22;49035;48.812;11.762;2023-02-28T00:49:26;-2.90;99.90
22161;DHT22;49035;48.812;11.762;2023-02-28T00:51:54;-2.90;99.90
22161;DHT22;49035;48.812;11.762;2023-02-28T00:54:20;-2.80;99.90
22161;DHT22;49035;48.812;11.762;2023-02-28T00:56:46;-2.80;99.90
22161;DHT22;49035;48.812;11.762;2023-02-28T00:59:16;-2.80;99.90
22161;DHT22;49035;48.812;11.762;2023-02-28T01:01:42;-2.90;99.90
22161;DHT22;49035;48.812;11.762;2023-02-28T01:04:08;-2.90;99.90
22161;DHT22;49035;48.812;11.762;2023-02-28T01:06:34;-3.00;99.90
22161;DHT22;49035;48.812;11.762;2023-02-28T01:09:01;-2.90;99.90
22161;DHT22;49035;48.812;11.762;2023-02-28T01:11:27;-3.00;99.90
22161;DHT22;49035;48.812;11.762;2023-02-28T01:13:53;-3.00;99.90
22161;DHT22;49035;48.812;11.762;2023-02-28T01:16:19;-3.00;99.90
22161;DHT22;49035;48.812;11.762;2023-02-28T01:18:44;-3.00;99.90
22161;DHT22;49035;48.812;11.762;2023-02-28T01:21:13;-3.00;99.90
22161;DHT22;49035;48.812;11.762;2023-02-28T01:23:39;-3.00;99.90
22161;DHT22;49035;48.812;11.762;2023-02-28T01:26:07;-3.00;99.90
22161;DHT22;49035;48.812;11.762;2023-02-28T01:28:33;-3.10;99.90
22161;DHT22;49035;48.812;11.762;2023-02-28T01:30:59;-3.10;99.90
22161;DHT22;49035;48.812;11.762;2023-02-28T01:33:24;-3.20;99.90
22161;DHT22;49035;48.812;11.762;2023-02-28T01:35:58;-3.10;99.90
22161;DHT22;49035;48.812;11.762;2023-02-28T01:38:24;-3.20;99.90
22161;DHT22;49035;48.812;11.762;2023-02-28T01:40:49;-3.20;99.90
22161;DHT22;49035;48.812;11.762;2023-02-28T01:43:22;-3.20;99.90
22161;DHT22;49035;48.812;11.762;2023-02-28T01:45:48;-3.20;99.90
22161;DHT22;49035;48.812;11.762;2023-02-28T01:48:14;-3.20;99.90
22161;DHT22;49035;48.812;11.762;2023-02-28T01:50:43;-3.20;99.90
22161;DHT22;49035;48.812;11.762;2023-02-28T01:53:17;-3.10;99.90
22161;DHT22;49035;48.812;11.762;2023-02-28T01:55:47;-3.00;99.90
22161;DHT22;49035;48.812;11.762;2023-02-28T01:58:13;-3.00;99.90
22161;DHT22;49035;48.812;11.762;2023-02-28T02:00:39;-3.00;99.90
22161;DHT22;49035;48.812;11.762;2023-02-28T02:03:13;-3.00;99.90
22161;DHT22;49035;48.812;11.762;2023-02-28T02:05:41;-3.00;99.90
22161;DHT22;49035;48.812;11.762;2023-02-28T02:08:12;-3.10;99.90
22161;DHT22;49035;48.812;11.762;2023-02-28T02:10:56;-3.10;99.90
22161;DHT22;49035;48.812;11.762;2023-02-28T02:19:08;-3.00;99.90
22161;DHT22;49035;48.812;11.762;2023-02-28T02:22:20;-3.00;99.90
22161;DHT22;49035;48.812;11.762;2023-02-28T02:33:33;-3.20;99.90
22161;DHT22;49035;48.812;11.762;2023-02-28T02:36:30;-3.20;99.90
22161;DHT22;49035;48.812;11.762;2023-02-28T02:39:14;-3.20;99.90
22161;DHT22;49035;48.812;11.762;2023-02-28T02:41:49;-3.30;99.90
22161;DHT22;49035;48.812;11.762;2023-02-28T02:44:40;-3.20;99.90
22161;DHT22;49035;48.812;11.762;2023-02-28T02:47:13;-3.20;99.90
22161;DHT22;49035;48.812;11.762;2023-02-28T02:49:47;-3.10;99.90
22161;DHT22;49035;48.812;11.762;2023-02-28T02:52:16;-3.10;99.90
22161;DHT22;49035;48.812;11.762;2023-02-28T02:54:45;-3.10;99.90
22161;DHT22;49035;48.812;11.762;2023-02-28T02:57:19;-3.10;99.90
22161;DHT22;49035;48.812;11.762;2023-02-28T02:59:45;-3.10;99.90
22161;DHT22;49035;48.812;11.762;2023-02-28T03:02:13;-3.20;99.90
22161;DHT22;49035;48.812;11.762;2023-02-28T03:04:48;-3.30;99.90
22161;DHT22;49035;48.812;11.762;2023-02-28T03:07:16;-3.40;99.90
22161;DHT22;49035;48.812;11.762;2023-02-28T03:09:51;-3.30;99.90
22161;DHT22;49035;48.812;11.762;2023-02-28T03:12:20;-3.30;99.90
22161;DHT22;49035;48.812;11.762;2023-02-28T03:15:43;-3.40;99.90
22161;DHT22;49035;48.812;11.762;2023-02-28T03:20:35;-3.30;99.90
22161;DHT22;49035;48.812;11.762;2023-02-28T03:23:10;-3.40;99.90
22161;DHT22;49035;48.812;11.762;2023-02-28T03:25:54;-3.30;99.90
22161;DHT22;49035;48.812;11.762;2023-02-28T03:31:18;-3.20;99.90
22161;DHT22;49035;48.812;11.762;2023-02-28T03:33:53;-3.20;99.90
22161;DHT22;49035;48.812;11.762;2023-02-28T03:36:23;-3.30;99.90
22161;DHT22;49035;48.812;11.762;2023-02-28T03:38:59;-3.40;99.90
22161;DHT22;49035;48.812;11.762;2023-02-28T03:42:14;-3.30;99.90
22161;DHT22;49035;48.812;11.762;2023-02-28T03:44:36;-3.40;99.90
22161;DHT22;49035;48.812;11.762;2023-02-28T03:47:16;-3.40;99.90
22161;DHT22;49035;48.812;11.762;2023-02-28T03:52:14;-3.40;99.90
22161;DHT22;49035;48.812;11.762;2023-02-28T03:54:50;-3.30;99.90
22161;DHT22;49035;48.812;11.762;2023-02-28T03:57:36;-3.30;99.90
22161;DHT22;49035;48.812;11.762;2023-02-28T04:00:08;-3.30;99.90
22161;DHT22;49035;48.812;11.762;2023-02-28T04:02:35;-3.20;99.90
22161;DHT22;49035;48.812;11.762;2023-02-28T04:05:01;-3.20;99.90
22161;DHT22;49035;48.812;11.762;2023-02-28T04:07:30;-3.20;99.90
22161;DHT22;49035;48.812;11.762;2023-02-28T04:09:56;-3.30;99.90
22161;DHT22;49035;48.812;11.762;2023-02-28T04:12:22;-3.30;99.90
22161;DHT22;49035;48.812;11.762;2023-02-28T04:14:49;-3.40;99.90
22161;DHT22;49035;48.812;11.762;2023-02-28T04:17:15;-3.30;99.90
22161;DHT22;49035;48.812;11.762;2023-02-28T04:19:40;-3.40;99.90
22161;DHT22;49035;48.812;11.762;2023-02-28T04:22:07;-3.40;99.90
22161;DHT22;49035;48.812;11.762;2023-02-28T04:24:33;-3.50;99.90
22161;DHT22;49035;48.812;11.762;2023-02-28T04:26:58;-3.60;99.90
22161;DHT22;49035;48.812;11.762;2023-02-28T04:29:30;-3.60;99.90
22161;DHT22;49035;48.812;11.762;2023-02-28T04:31:56;-3.60;99.90
22161;DHT22;49035;48.812;11.762;2023-02-28T04:34:30;-3.60;99.90
22161;DHT22;49035;48.812;11.762;2023-02-28T04:36:56;-3.50;99.90
22161;DHT22;49035;48.812;11.762;2023-02-28T04:39:23;-3.50;99.90
22161;DHT22;49035;48.812;11.762;2023-02-28T04:41:49;-3.40;99.90
22161;DHT22;49035;48.812;11.762;2023-02-28T04:44:15;-3.40;99.90
22161;DHT22;49035;48.812;11.762;2023-02-28T04:46:41;-3.50;99.90
22161;DHT22;49035;48.812;11.762;2023-02-28T04:49:08;-3.60;99.90
22161;DHT22;49035;48.812;11.762;2023-02-28T04:51:35;-3.60;99.90
22161;DHT22;49035;48.812;11.762;2023-02-28T04:54:00;-3.70;99.90
22161;DHT22;49035;48.812;11.762;2023-02-28T04:56:26;-3.70;99.90
22161;DHT22;49035;48.812;11.762;2023-02-28T04:58:51;-3.60;99.90
22161;DHT22;49035;48.812;11.762;2023-02-28T05:01:27;-3.60;99.90
22161;DHT22;49035;48.812;11.762;2023-02-28T05:03:55;-3.60;99.90
22161;DHT22;49035;48.812;11.762;2023-02-28T05:06:23;-3.70;99.90
22161;DHT22;49035;48.812;11.762;2023-02-28T05:08:52;-3.70;99.90
22161;DHT22;49035;48.812;11.762;2023-02-28T05:11:29;-3.90;99.90
22161;DHT22;49035;48.812;11.762;2023-02-28T05:13:58;-4.00;99.90
22161;DHT22;49035;48.812;11.762;2023-02-28T05:16:24;-3.90;99.90
22161;DHT22;49035;48.812;11.762;2023-02-28T05:18:50;-4.10;99.90
22161;DHT22;49035;48.812;11.762;2023-02-28T05:21:29;-4.20;99.90
22161;DHT22;49035;48.812;11.762;2023-02-28T05:23:58;-4.40;99.90
22161;DHT22;49035;48.812;11.762;2023-02-28T05:26:24;-4.50;99.90
22161;DHT22;49035;48.812;11.762;2023-02-28T05:28:50;-4.50;99.90
22161;DHT22;49035;48.812;11.762;2023-02-28T05:31:16;-4.40;99.90
22161;DHT22;49035;48.812;11.762;2023-02-28T05:33:41;-4.40;99.90
22161;DHT22;49035;48.812;11.762;2023-02-28T05:36:07;-4.30;99.90
22161;DHT22;49035;48.812;11.762;2023-02-28T05:38:33;-4.20;99.90
22161;DHT22;49035;48.812;11.762;2023-02-28T05:40:59;-4.10;99.90
22161;DHT22;49035;48.812;11.762;2023-02-28T05:43:25;-3.90;99.90
22161;DHT22;49035;48.812;11.762;2023-02-28T05:45:50;-3.90;99.90
22161;DHT22;49035;48.812;11.762;2023-02-28T05:48:16;-4.00;99.90
22161;DHT22;49035;48.812;11.762;2023-02-28T05:50:42;-4.10;99.90
22161;DHT22;49035;48.812;11.762;2023-02-28T05:53:10;-4.10;99.90
22161;DHT22;49035;48.812;11.762;2023-02-28T05:55:35;-3.90;99.90
22161;DHT22;49035;48.812;11.762;2023-02-28T05:58:02;-3.90;99.90
22161;DHT22;49035;48.812;11.762;2023-02-28T06:00:28;-3.90;99.90
22161;DHT22;49035;48.812;11.762;2023-02-28T06:02:53;-3.90;99.90
22161;DHT22;49035;48.812;11.762;2023-02-28T06:05:22;-3.90;99.90
22161;DHT22;49035;48.812;11.762;2023-02-28T06:07:47;-4.00;99.90
22161;DHT22;49035;48.812;11.762;2023-02-28T06:10:13;-3.90;99.90
22161;DHT22;49035;48.812;11.762;2023-02-28T06:12:40;-3.90;99.90
22161;DHT22;49035;48.812;11.762;2023-02-28T06:15:09;-3.90;99.90
22161;DHT22;49035;48.812;11.762;2023-02-28T06:17:36;-3.80;99.90
22161;DHT22;49035;48.812;11.762;2023-02-28T06:20:02;-3.90;99.90
22161;DHT22;49035;48.812;11.762;2023-02-28T06:22:28;-3.90;99.90
22161;DHT22;49035;48.812;11.762;2023-02-28T06:24:54;-4.00;99.90
22161;DHT22;49035;48.812;11.762;2023-02-28T06:27:20;-4.00;99.90
22161;DHT22;49035;48.812;11.762;2023-02-28T06:29:45;-3.90;99.90
22161;DHT22;49035;48.812;11.762;2023-02-28T06:32:11;-3.80;99.90
22161;DHT22;49035;48.812;11.762;2023-02-28T06:34:37;-3.80;99.90
22161;DHT22;49035;48.812;11.762;2023-02-28T06:37:02;-3.70;99.90
22161;DHT22;49035;48.812;11.762;2023-02-28T06:39:30;-3.60;99.90
22161;DHT22;49035;48.812;11.762;2023-02-28T06:41:55;-3.40;99.90
22161;DHT22;49035;48.812;11.762;2023-02-28T06:44:22;-3.30;99.90
22161;DHT22;49035;48.812;11.762;2023-02-28T06:46:48;-3.20;99.90
22161;DHT22;49035;48.812;11.762;2023-02-28T06:49:14;-3.10;99.90
22161;DHT22;49035;48.812;11.762;2023-02-28T06:51:41;-3.00;99.90
22161;DHT22;49035;48.812;11.762;2023-02-28T06:54:07;-2.90;99.90
22161;DHT22;49035;48.812;11.762;2023-02-28T06:56:35;-2.80;99.90
22161;DHT22;49035;48.812;11.762;2023-02-28T06:59:01;-2.80;99.90
22161;DHT22;49035;48.812;11.762;2023-02-28T07:01:27;-2.60;99.90
22161;DHT22;49035;48.812;11.762;2023-02-28T07:03:54;-2.50;99.90
22161;DHT22;49035;48.812;11.762;2023-02-28T07:06:20;-2.40;99.90
22161;DHT22;49035;48.812;11.762;2023-02-28T07:08:48;-2.30;99.90
22161;DHT22;49035;48.812;11.762;2023-02-28T07:11:14;-2.10;99.90
22161;DHT22;49035;48.812;11.762;2023-02-28T07:13:39;-2.10;99.90
22161;DHT22;49035;48.812;11.762;2023-02-28T07:16:08;-1.90;99.90
22161;DHT22;49035;48.812;11.762;2023-02-28T07:18:34;-1.90;99.90
22161;DHT22;49035;48.812;11.762;2023-02-28T07:21:05;-1.80;99.90
22161;DHT22;49035;48.812;11.762;2023-02-28T07:23:31;-1.70;99.90
22161;DHT22;49035;48.812;11.762;2023-02-28T07:25:57;-1.60;99.90
22161;DHT22;49035;48.812;11.762;2023-02-28T07:28:23;-1.50;99.90
22161;DHT22;49035;48.812;11.762;2023-02-28T07:30:48;-1.40;99.90
22161;DHT22;49035;48.812;11.762;2023-02-28T07:33:14;-1.30;99.90
22161;DHT22;49035;48.812;11.762;2023-02-28T07:35:40;-1.10;99.90
22161;DHT22;49035;48.812;11.762;2023-02-28T07:38:06;-1.10;99.90
22161;DHT22;49035;48.812;11.762;2023-02-28T07:40:35;-1.00;99.90
22161;DHT22;49035;48.812;11.762;2023-02-28T07:43:01;-0.90;99.90
22161;DHT22;49035;48.812;11.762;2023-02-28T07:45:27;-0.80;99.90
22161;DHT22;49035;48.812;11.762;2023-02-28T07:47:59;-0.70;99.90
22161;DHT22;49035;48.812;11.762;2023-02-28T07:50:26;-0.60;99.90
22161;DHT22;49035;48.812;11.762;2023-02-28T07:52:54;-0.50;99.90
22161;DHT22;49035;48.812;11.762;2023-02-28T07:55:20;-0.40;99.90
22161;DHT22;49035;48.812;11.762;2023-02-28T07:57:45;-0.30;99.90
22161;DHT22;49035;48.812;11.762;2023-02-28T08:00:11;-0.20;99.90
22161;DHT22;49035;48.812;11.762;2023-02-28T08:02:38;-0.10;99.90
22161;DHT22;49035;48.812;11.762;2023-02-28T08:05:04;-0.20;99.90
22161;DHT22;49035;48.812;11.762;2023-02-28T08:07:30;-0.10;99.90
22161;DHT22;49035;48.812;11.762;2023-02-28T08:09:56;-0.10;99.90
22161;DHT22;49035;48.812;11.762;2023-02-28T08:12:21;0.00;99.90
22161;DHT22;49035;48.812;11.762;2023-02-28T08:14:47;0.10;99.90
22161;DHT22;49035;48.812;11.762;2023-02-28T08:17:12;0.20;99.90
22161;DHT22;49035;48.812;11.762;2023-02-28T08:19:38;0.30;99.90
22161;DHT22;49035;48.812;11.762;2023-02-28T08:22:04;0.50;99.90
22161;DHT22;49035;48.812;11.762;2023-02-28T08:24:29;0.60;99.70
22161;DHT22;49035;48.812;11.762;2023-02-28T08:26:55;0.50;97.80
22161;DHT22;49035;48.812;11.762;2023-02-28T08:29:21;0.60;97.80
22161;DHT22;49035;48.812;11.762;2023-02-28T08:31:47;0.60;97.60
22161;DHT22;49035;48.812;11.762;2023-02-28T08:34:14;0.70;97.70
22161;DHT22;49035;48.812;11.762;2023-02-28T08:36:40;0.90;97.00
22161;DHT22;49035;48.812;11.762;2023-02-28T08:39:07;0.80;95.80
22161;DHT22;49035;48.812;11.762;2023-02-28T08:41:33;0.80;96.50
22161;DHT22;49035;48.812;11.762;2023-02-28T08:43:59;1.00;96.30
22161;DHT22;49035;48.812;11.762;2023-02-28T08:46:27;1.10;96.10
22161;DHT22;49035;48.812;11.762;2023-02-28T08:48:56;1.20;95.30
22161;DHT22;49035;48.812;11.762;2023-02-28T08:51:27;1.30;95.30
22161;DHT22;49035;48.812;11.762;2023-02-28T08:53:54;1.30;94.50
22161;DHT22;49035;48.812;11.762;2023-02-28T08:56:21;1.40;94.20
22161;DHT22;49035;48.812;11.762;2023-02-28T08:58:49;1.30;93.80
22161;DHT22;49035;48.812;11.762;2023-02-28T09:01:20;1.40;93.80
22161;DHT22;49035;48.812;11.762;2023-02-28T09:03:48;1.50;93.30
22161;DHT22;49035;48.812;11.762;2023-02-28T09:06:15;1.60;93.60
22161;DHT22;49035;48.812;11.762;2023-02-28T09:08:41;1.70;92.30
22161;DHT22;49035;48.812;11.762;2023-02-28T09:11:07;1.60;92.00
22161;DHT22;49035;48.812;11.762;2023-02-28T09:13:33;1.50;91.70
22161;DHT22;49035;48.812;11.762;2023-02-28T09:16:00;1.50;91.90
22161;DHT22;49035;48.812;11.762;2023-02-28T09:18:26;1.60;92.00
22161;DHT22;49035;48.812;11.762;2023-02-28T09:20:52;1.80;92.30
22161;DHT22;49035;48.812;11.762;2023-02-28T09:23:18;1.80;91.70
22161;DHT22;49035;48.812;11.762;2023-02-28T09:25:49;1.80;90.90
22161;DHT22;49035;48.812;11.762;2023-02-28T09:28:15;1.80;91.00
22161;DHT22;49035;48.812;11.762;2023-02-28T09:30:41;2.00;91.80
22161;DHT22;49035;48.812;11.762;2023-02-28T09:33:07;2.10;91.10
22161;DHT22;49035;48.812;11.762;2023-02-28T09:35:33;2.20;91.10
22161;DHT22;49035;48.812;11.762;2023-02-28T09:37:58;2.10;89.50
22161;DHT22;49035;48.812;11.762;2023-02-28T09:40:25;2.00;90.20
22161;DHT22;49035;48.812;11.762;2023-02-28T09:42:53;2.10;91.00
22161;DHT22;49035;48.812;11.762;2023-02-28T09:45:41;2.20;91.20
22161;DHT22;49035;48.812;11.762;2023-02-28T09:48:25;2.30;90.30
22161;DHT22;49035;48.812;11.762;2023-02-28T09:51:04;2.30;88.40
22161;DHT22;49035;48.812;11.762;2023-02-28T09:53:35;2.30;89.10
22161;DHT22;49035;48.812;11.762;2023-02-28T09:56:26;2.20;89.30
22161;DHT22;49035;48.812;11.762;2023-02-28T09:58:57;2.20;89.80
22161;DHT22;49035;48.812;11.762;2023-02-28T10:04:36;2.40;89.00
22161;DHT22;49035;48.812;11.762;2023-02-28T10:07:17;2.40;90.70
22161;DHT22;49035;48.812;11.762;2023-02-28T10:09:46;2.40;88.20
22161;DHT22;49035;48.812;11.762;2023-02-28T10:12:16;2.50;88.30
22161;DHT22;49035;48.812;11.762;2023-02-28T10:14:45;2.70;88.30
22161;DHT22;49035;48.812;11.762;2023-02-28T10:17:30;2.80;88.70
22161;DHT22;49035;48.812;11.762;2023-02-28T10:20:04;2.90;89.90
22161;DHT22;49035;48.812;11.762;2023-02-28T10:22:56;3.00;88.20
22161;DHT22;49035;48.812;11.762;2023-02-28T10:25:25;3.00;87.80
22161;DHT22;49035;48.812;11.762;2023-02-28T10:28:00;2.80;87.70
22161;DHT22;49035;48.812;11.762;2023-02-28T10:30:27;2.80;86.80
22161;DHT22;49035;48.812;11.762;2023-02-28T10:32:52;2.70;85.90
22161;DHT22;49035;48.812;11.762;2023-02-28T10:35:21;2.80;87.80
22161;DHT22;49035;48.812;11.762;2023-02-28T10:37:55;3.10;87.60
22161;DHT22;49035;48.812;11.762;2023-02-28T10:43:01;3.20;87.20
22161;DHT22;49035;48.812;11.762;2023-02-28T10:45:34;3.00;85.40
22161;DHT22;49035;48.812;11.762;2023-02-28T10:50:51;3.20;87.20
22161;DHT22;49035;48.812;11.762;2023-02-28T11:01:20;3.20;87.90
22161;DHT22;49035;48.812;11.762;2023-02-28T11:03:47;3.40;86.70
22161;DHT22;49035;48.812;11.762;2023-02-28T11:06:19;3.60;86.80
22161;DHT22;49035;48.812;11.762;2023-02-28T11:08:58;3.70;85.60
22161;DHT22;49035;48.812;11.762;2023-02-28T11:11:26;3.90;85.90
22161;DHT22;49035;48.812;11.762;2023-02-28T11:13:55;3.90;83.70
22161;DHT22;49035;48.812;11.762;2023-02-28T11:16:33;3.70;83.80
22161;DHT22;49035;48.812;11.762;2023-02-28T11:19:00;3.70;83.20
22161;DHT22;49035;48.812;11.762;2023-02-28T11:24:04;3.90;86.50
22161;DHT22;49035;48.812;11.762;2023-02-28T11:26:39;4.00;84.50
22161;DHT22;49035;48.812;11.762;2023-02-28T11:29:31;4.20;86.70
22161;DHT22;49035;48.812;11.762;2023-02-28T11:32:21;4.00;83.10
22161;DHT22;49035;48.812;11.762;2023-02-28T11:37:35;3.90;84.30
22161;DHT22;49035;48.812;11.762;2023-02-28T11:40:02;3.90;83.40
22161;DHT22;49035;48.812;11.762;2023-02-28T11:45:19;3.80;83.40
22161;DHT22;49035;48.812;11.762;2023-02-28T11:48:21;3.90;85.50
22161;DHT22;49035;48.812;11.762;2023-02-28T11:51:03;4.10;85.00
22161;DHT22;49035;48.812;11.762;2023-02-28T11:58:55;4.30;85.30
22161;DHT22;49035;48.812;11.762;2023-02-28T12:01:28;4.40;83.50
22161;DHT22;49035;48.812;11.762;2023-02-28T12:04:39;4.30;84.20
22161;DHT22;49035;48.812;11.762;2023-02-28T12:07:13;4.20;83.60
22161;DHT22;49035;48.812;11.762;2023-02-28T12:09:56;4.50;85.10
22161;DHT22;49035;48.812;11.762;2023-02-28T12:12:31;4.70;84.00
22161;DHT22;49035;48.812;11.762;2023-02-28T12:18:24;4.70;80.90
22161;DHT22;49035;48.812;11.762;2023-02-28T12:29:04;4.90;80.50
22161;DHT22;49035;48.812;11.762;2023-02-28T12:31:40;4.80;81.30
22161;DHT22;49035;48.812;11.762;2023-02-28T12:34:11;5.00;81.10
22161;DHT22;49035;48.812;11.762;2023-02-28T12:36:39;5.00;82.90
22161;DHT22;49035;48.812;11.762;2023-02-28T12:39:29;5.00;81.80
22161;DHT22;49035;48.812;11.762;2023-02-28T12:42:07;5.20;82.60
22161;DHT22;49035;48.812;11.762;2023-02-28T12:44:43;5.10;81.80
22161;DHT22;49035;48.812;11.762;2023-02-28T12:47:15;4.90;82.00
22161;DHT22;49035;48.812;11.762;2023-02-28T12:50:03;4.90;80.40
22161;DHT22;49035;48.812;11.762;2023-02-28T12:55:47;5.00;83.40
22161;DHT22;49035;48.812;11.762;2023-02-28T12:58:30;5.30;81.30
22161;DHT22;49035;48.812;11.762;2023-02-28T13:07:20;5.50;80.90
22161;DHT22;49035;48.812;11.762;2023-02-28T13:09:54;5.50;78.20
22161;DHT22;49035;48.812;11.762;2023-02-28T13:12:21;5.30;80.10
22161;DHT22;49035;48.812;11.762;2023-02-28T13:14:48;5.20;78.10
22161;DHT22;49035;48.812;11.762;2023-02-28T13:17:20;5.20;85.00
22161;DHT22;49035;48.812;11.762;2023-02-28T13:22:36;5.40;80.30
22161;DHT22;49035;48.812;11.762;2023-02-28T13:28:12;5.60;80.20
22161;DHT22;49035;48.812;11.762;2023-02-28T13:33:31;5.50;78.50
22161;DHT22;49035;48.812;11.762;2023-02-28T13:38:46;5.10;80.00
22161;DHT22;49035;48.812;11.762;2023-02-28T13:44:22;5.40;83.40
22161;DHT22;49035;48.812;11.762;2023-02-28T13:51:53;5.50;80.50
22161;DHT22;49035;48.812;11.762;2023-02-28T14:03:23;5.20;81.30
22161;DHT22;49035;48.812;11.762;2023-02-28T14:08:35;5.20;79.20
22161;DHT22;49035;48.812;11.762;2023-02-28T14:11:08;5.20;80.20
22161;DHT22;49035;48.812;11.762;2023-02-28T14:13:48;5.00;80.70
22161;DHT22;49035;48.812;11.762;2023-02-28T14:16:24;5.10;83.20
22161;DHT22;49035;48.812;11.762;2023-02-28T14:19:03;5.10;81.70
22161;DHT22;49035;48.812;11.762;2023-02-28T14:21:36;5.00;83.00
22161;DHT22;49035;48.812;11.762;2023-02-28T14:36:21;5.20;84.20
22161;DHT22;49035;48.812;11.762;2023-02-28T14:43:59;5.00;81.60
22161;DHT22;49035;48.812;11.762;2023-02-28T14:46:46;5.00;81.70
22161;DHT22;49035;48.812;11.762;2023-02-28T14:49:26;4.90;82.20
22161;DHT22;49035;48.812;11.762;2023-02-28T14:54:37;5.00;82.80
22161;DHT22;49035;48.812;11.762;2023-02-28T14:57:04;4.90;82.10
22161;DHT22;49035;48.812;11.762;2023-02-28T14:59:33;4.80;83.00
22161;DHT22;49035;48.812;11.762;2023-02-28T15:02:20;4.80;83.90
22161;DHT22;49035;48.812;11.762;2023-02-28T15:05:00;4.80;82.20
22161;DHT22;49035;48.812;11.762;2023-02-28T15:07:26;4.80;83.20
22161;DHT22;49035;48.812;11.762;2023-02-28T15:10:21;4.80;83.60
22161;DHT22;49035;48.812;11.762;2023-02-28T15:13:10;4.60;82.60
22161;DHT22;49035;48.812;11.762;2023-02-28T15:18:26;4.10;84.30
22161;DHT22;49035;48.812;11.762;2023-02-28T15:20:55;3.90;84.50
22161;DHT22;49035;48.812;11.762;2023-02-28T15:23:21;3.80;86.40
22161;DHT22;49035;48.812;11.762;2023-02-28T15:25:48;3.70;86.50
22161;DHT22;49035;48.812;11.762;2023-02-28T15:28:20;3.60;87.80
22161;DHT22;49035;48.812;11.762;2023-02-28T15:33:24;3.50;87.70
22161;DHT22;49035;48.812;11.762;2023-02-28T15:35:51;3.50;88.70
22161;DHT22;49035;48.812;11.762;2023-02-28T15:38:27;3.40;88.20
22161;DHT22;49035;48.812;11.762;2023-02-28T15:40:58;3.40;87.60
22161;DHT22;49035;48.812;11.762;2023-02-28T15:43:30;3.40;89.10
22161;DHT22;49035;48.812;11.762;2023-02-28T15:46:07;3.30;89.40
22161;DHT22;49035;48.812;11.762;2023-02-28T15:51:26;3.40;89.00
22161;DHT22;49035;48.812;11.762;2023-02-28T15:54:04;3.30;90.30
22161;DHT22;49035;48.812;11.762;2023-02-28T15:56:32;3.30;89.70
22161;DHT22;49035;48.812;11.762;2023-02-28T15:59:00;3.30;90.00
22161;DHT22;49035;48.812;11.762;2023-02-28T16:01:32;3.20;90.20
22161;DHT22;49035;48.812;11.762;2023-02-28T16:04:14;3.20;90.10
22161;DHT22;49035;48.812;11.762;2023-02-28T16:09:15;3.20;90.50
22161;DHT22;49035;48.812;11.762;2023-02-28T16:11:49;3.20;90.30
22161;DHT22;49035;48.812;11.762;2023-02-28T16:14:24;3.20;90.60
22161;DHT22;49035;48.812;11.762;2023-02-28T16:16:54;3.20;90.40
22161;DHT22;49035;48.812;11.762;2023-02-28T16:19:20;3.20;90.70
22161;DHT22;49035;48.812;11.762;2023-02-28T16:21:46;3.20;90.70
22161;DHT22;49035;48.812;11.762;2023-02-28T16:24:12;3.10;90.60
22161;DHT22;49035;48.812;11.762;2023-02-28T16:26:40;3.00;90.70
22161;DHT22;49035;48.812;11.762;2023-02-28T16:29:06;3.00;91.20
22161;DHT22;49035;48.812;11.762;2023-02-28T16:31:36;3.00;91.50
22161;DHT22;49035;48.812;11.762;2023-02-28T16:34:02;3.00;91.70
22161;DHT22;49035;48.812;11.762;2023-02-28T16:36:29;3.00;91.40
22161;DHT22;49035;48.812;11.762;2023-02-28T16:38:54;2.90;91.50
22161;DHT22;49035;48.812;11.762;2023-02-28T16:41:23;2.90;91.30
22161;DHT22;49035;48.812;11.762;2023-02-28T16:43:52;2.90;91.80
22161;DHT22;49035;48.812;11.762;2023-02-28T16:46:18;2.90;91.70
22161;DHT22;49035;48.812;11.762;2023-02-28T16:48:44;2.90;91.60
22161;DHT22;49035;48.812;11.762;2023-02-28T16:51:14;2.90;92.20
22161;DHT22;49035;48.812;11.762;2023-02-28T16:53:41;2.80;92.30
22161;DHT22;49035;48.812;11.762;2023-02-28T16:56:18;2.70;91.90
22161;DHT22;49035;48.812;11.762;2023-02-28T16:58:44;2.70;92.10
22161;DHT22;49035;48.812;11.762;2023-02-28T17:01:11;2.70;91.80
22161;DHT22;49035;48.812;11.762;2023-02-28T17:03:36;2.70;91.80
22161;DHT22;49035;48.812;11.762;2023-02-28T17:06:03;2.70;91.60
22161;DHT22;49035;48.812;11.762;2023-02-28T17:08:30;2.70;91.70
22161;DHT22;49035;48.812;11.762;2023-02-28T17:10:57;2.70;92.50
22161;DHT22;49035;48.812;11.762;2023-02-28T17:13:23;2.70;92.50
22161;DHT22;49035;48.812;11.762;2023-02-28T17:15:49;2.60;92.80
22161;DHT22;49035;48.812;11.762;2023-02-28T17:18:17;2.50;93.10
22161;DHT22;49035;48.812;11.762;2023-02-28T17:20:45;2.50;93.00
22161;DHT22;49035;48.812;11.762;2023-02-28T17:23:11;2.50;92.30
22161;DHT22;49035;48.812;11.762;2023-02-28T17:25:37;2.50;92.70
22161;DHT22;49035;48.812;11.762;2023-02-28T17:28:02;2.40;92.80
22161;DHT22;49035;48.812;11.762;2023-02-28T17:30:28;2.40;93.10
22161;DHT22;49035;48.812;11.762;2023-02-28T17:32:55;2.40;93.30
22161;DHT22;49035;48.812;11.762;2023-02-28T17:35:22;2.30;93.70
22161;DHT22;49035;48.812;11.762;2023-02-28T17:37:48;2.30;93.50
22161;DHT22;49035;48.812;11.762;2023-02-28T17:40:15;2.30;93.50
22161;DHT22;49035;48.812;11.762;2023-02-28T17:42:42;2.20;93.40
22161;DHT22;49035;48.812;11.762;2023-02-28T17:45:08;2.20;93.30
22161;DHT22;49035;48.812;11.762;2023-02-28T17:47:34;2.20;93.80
22161;DHT22;49035;48.812;11.762;2023-02-28T17:50:00;2.10;93.90
22161;DHT22;49035;48.812;11.762;2023-02-28T17:52:25;2.00;93.90
22161;DHT22;49035;48.812;11.762;2023-02-28T17:54:51;1.90;94.00